sensor_id;sensor_type;location;lat;lon;timestamp;P1;durP1;ratioP1;P2;durP2;ratioP2
75160;SDS011;67232;50.096;8.716;2023-04-30T00:01:58;3.92;;;0.20;;
75160;SDS011;67232;50.096;8.716;2023-04-30T00:04:31;4.40;;;0.28;;
75160;SDS011;67232;50.096;8.716;2023-04-30T00:06:59;3.72;;;0.08;;
75160;SDS011;67232;50.096;8.716;2023-04-30T00:09:25;6.43;;;0.28;;
75160;SDS011;67232;50.096;8.716;2023-04-30T00:11:56;4.05;;;0.10;;
75160;SDS011;67232;50.096;8.716;2023-04-30T00:14:22;6.07;;;0.13;;
75160;SDS011;67232;50.096;8.716;2023-04-30T00:16:47;5.60;;;0.38;;
75160;SDS011;67232;50.096;8.716;2023-04-30T00:19:13;4.20;;;0.40;;
75160;SDS011;67232;50.096;8.716;2023-04-30T00:21:41;4.07;;;0.32;;
75160;SDS011;67232;50.096;8.716;2023-04-30T00:24:10;3.17;;;0.10;;
75160;SDS011;67232;50.096;8.716;2023-04-30T00:26:40;3.30;;;0.10;;
75160;SDS011;67232;50.096;8.716;2023-04-30T00:29:10;3.88;;;0.17;;
75160;SDS011;67232;50.096;8.716;2023-04-30T00:31:36;5.55;;;0.25;;
75160;SDS011;67232;50.096;8.716;2023-04-30T00:34:01;4.00;;;0.28;;
75160;SDS011;67232;50.096;8.716;2023-04-30T00:36:27;4.90;;;0.17;;
75160;SDS011;67232;50.096;8.716;2023-04-30T00:38:55;4.07;;;0.10;;
75160;SDS011;67232;50.096;8.716;2023-04-30T00:41:23;5.03;;;0.38;;
75160;SDS011;67232;50.096;8.716;2023-04-30T00:43:52;4.63;;;0.30;;
75160;SDS011;67232;50.096;8.716;2023-04-30T00:46:18;6.57;;;0.40;;
75160;SDS011;67232;50.096;8.716;2023-04-30T00:48:53;5.30;;;0.20;;
75160;SDS011;67232;50.096;8.716;2023-04-30T00:51:18;3.78;;;0.20;;
75160;SDS011;67232;50.096;8.716;2023-04-30T00:53:44;4.60;;;0.25;;
75160;SDS011;67232;50.096;8.716;2023-04-30T00:56:15;3.72;;;0.10;;
75160;SDS011;67232;50.096;8.716;2023-04-30T00:58:51;3.88;;;0.22;;
75160;SDS011;67232;50.096;8.716;2023-04-30T01:01:21;5.70;;;0.28;;
75160;SDS011;67232;50.096;8.716;2023-04-30T01:04:02;6.75;;;0.30;;
75160;SDS011;67232;50.096;8.716;2023-04-30T01:06:28;4.80;;;0.45;;
75160;SDS011;67232;50.096;8.716;2023-04-30T01:08:54;4.00;;;0.28;;
75160;SDS011;67232;50.096;8.716;2023-04-30T01:13:54;5.55;;;0.38;;
75160;SDS011;67232;50.096;8.716;2023-04-30T01:16:32;6.80;;;0.15;;
75160;SDS011;67232;50.096;8.716;2023-04-30T01:21:33;5.28;;;0.45;;
75160;SDS011;67232;50.096;8.716;2023-04-30T01:29:32;4.80;;;0.45;;
75160;SDS011;67232;50.096;8.716;2023-04-30T01:32:00;5.18;;;0.43;;
75160;SDS011;67232;50.096;8.716;2023-04-30T01:34:27;6.47;;;0.52;;
75160;SDS011;67232;50.096;8.716;2023-04-30T01:39:37;4.43;;;0.30;;
75160;SDS011;67232;50.096;8.716;2023-04-30T01:42:20;6.85;;;0.30;;
75160;SDS011;67232;50.096;8.716;2023-04-30T01:53:12;4.57;;;0.25;;
75160;SDS011;67232;50.096;8.716;2023-04-30T01:55:49;4.10;;;0.38;;
75160;SDS011;67232;50.096;8.716;2023-04-30T01:58:21;6.93;;;0.50;;
75160;SDS011;67232;50.096;8.716;2023-04-30T02:00:55;5.00;;;0.43;;
75160;SDS011;67232;50.096;8.716;2023-04-30T02:03:28;9.88;;;0.60;;
75160;SDS011;67232;50.096;8.716;2023-04-30T02:05:56;8.30;;;0.57;;
75160;SDS011;67232;50.096;8.716;2023-04-30T02:08:24;5.70;;;0.70;;
75160;SDS011;67232;50.096;8.716;2023-04-30T02:10:51;3.78;;;0.40;;
75160;SDS011;67232;50.096;8.716;2023-04-30T02:13:16;4.05;;;0.38;;
75160;SDS011;67232;50.096;8.716;2023-04-30T02:15:42;10.13;;;1.25;;
75160;SDS011;67232;50.096;8.716;2023-04-30T02:18:07;4.43;;;0.38;;
75160;SDS011;67232;50.096;8.716;2023-04-30T02:20:33;5.32;;;0.50;;
75160;SDS011;67232;50.096;8.716;2023-04-30T02:22:58;5.55;;;0.30;;
75160;SDS011;67232;50.096;8.716;2023-04-30T02:25:24;4.03;;;0.20;;
75160;SDS011;67232;50.096;8.716;2023-04-30T02:27:50;6.13;;;0.55;;
75160;SDS011;67232;50.096;8.716;2023-04-30T02:30:15;5.38;;;0.57;;
75160;SDS011;67232;50.096;8.716;2023-04-30T02:32:41;5.90;;;0.60;;
75160;SDS011;67232;50.096;8.716;2023-04-30T02:35:07;5.15;;;0.35;;
75160;SDS011;67232;50.096;8.716;2023-04-30T02:37:35;5.47;;;0.55;;
75160;SDS011;67232;50.096;8.716;2023-04-30T02:40:00;5.22;;;0.70;;
75160;SDS011;67232;50.096;8.716;2023-04-30T02:42:26;5.60;;;0.50;;
75160;SDS011;67232;50.096;8.716;2023-04-30T02:44:51;5.35;;;0.30;;
75160;SDS011;67232;50.096;8.716;2023-04-30T02:47:19;9.25;;;0.63;;
75160;SDS011;67232;50.096;8.716;2023-04-30T02:49:45;6.28;;;0.40;;
75160;SDS011;67232;50.096;8.716;2023-04-30T02:52:10;7.22;;;0.90;;
75160;SDS011;67232;50.096;8.716;2023-04-30T02:54:36;7.85;;;0.50;;
75160;SDS011;67232;50.096;8.716;2023-04-30T02:57:01;6.97;;;0.80;;
75160;SDS011;67232;50.096;8.716;2023-04-30T02:59:27;5.72;;;0.28;;
75160;SDS011;67232;50.096;8.716;2023-04-30T03:01:57;5.50;;;0.63;;
75160;SDS011;67232;50.096;8.716;2023-04-30T03:04:23;6.25;;;0.47;;
75160;SDS011;67232;50.096;8.716;2023-04-30T03:06:48;6.30;;;0.82;;
75160;SDS011;67232;50.096;8.716;2023-04-30T03:09:16;4.68;;;0.38;;
75160;SDS011;67232;50.096;8.716;2023-04-30T03:11:42;6.28;;;0.55;;
75160;SDS011;67232;50.096;8.716;2023-04-30T03:14:07;5.20;;;0.47;;
75160;SDS011;67232;50.096;8.716;2023-04-30T03:16:37;5.47;;;0.13;;
75160;SDS011;67232;50.096;8.716;2023-04-30T03:19:03;4.85;;;0.30;;
75160;SDS011;67232;50.096;8.716;2023-04-30T03:21:28;7.57;;;0.40;;
75160;SDS011;67232;50.096;8.716;2023-04-30T03:23:55;6.40;;;0.43;;
75160;SDS011;67232;50.096;8.716;2023-04-30T03:26:21;9.55;;;0.57;;
75160;SDS011;67232;50.096;8.716;2023-04-30T03:28:46;5.47;;;0.50;;
75160;SDS011;67232;50.096;8.716;2023-04-30T03:31:12;7.10;;;0.60;;
75160;SDS011;67232;50.096;8.716;2023-04-30T03:33:40;5.50;;;0.50;;
75160;SDS011;67232;50.096;8.716;2023-04-30T03:36:05;6.35;;;0.60;;
75160;SDS011;67232;50.096;8.716;2023-04-30T03:38:31;9.43;;;0.55;;
75160;SDS011;67232;50.096;8.716;2023-04-30T03:40:56;5.57;;;0.52;;
75160;SDS011;67232;50.096;8.716;2023-04-30T03:43:22;3.90;;;0.50;;
75160;SDS011;67232;50.096;8.716;2023-04-30T03:45:48;8.10;;;0.70;;
75160;SDS011;67232;50.096;8.716;2023-04-30T03:48:16;4.53;;;0.32;;
75160;SDS011;67232;50.096;8.716;2023-04-30T03:50:46;5.82;;;0.68;;
75160;SDS011;67232;50.096;8.716;2023-04-30T03:53:14;4.80;;;0.20;;
75160;SDS011;67232;50.096;8.716;2023-04-30T03:55:40;6.80;;;0.70;;
75160;SDS011;67232;50.096;8.716;2023-04-30T03:58:08;6.60;;;0.68;;
75160;SDS011;67232;50.096;8.716;2023-04-30T04:00:34;4.68;;;0.35;;
75160;SDS011;67232;50.096;8.716;2023-04-30T04:02:59;4.40;;;0.63;;
75160;SDS011;67232;50.096;8.716;2023-04-30T04:05:28;5.35;;;0.70;;
75160;SDS011;67232;50.096;8.716;2023-04-30T04:07:55;5.68;;;0.43;;
75160;SDS011;67232;50.096;8.716;2023-04-30T04:10:23;5.20;;;0.32;;
75160;SDS011;67232;50.096;8.716;2023-04-30T04:12:49;5.68;;;0.50;;
75160;SDS011;67232;50.096;8.716;2023-04-30T04:15:14;5.70;;;0.60;;
75160;SDS011;67232;50.096;8.716;2023-04-30T04:17:40;6.85;;;0.50;;
75160;SDS011;67232;50.096;8.716;2023-04-30T04:20:08;8.23;;;0.90;;
75160;SDS011;67232;50.096;8.716;2023-04-30T04:22:34;6.95;;;0.73;;
75160;SDS011;67232;50.096;8.716;2023-04-30T04:25:02;5.25;;;0.50;;
75160;SDS011;67232;50.096;8.716;2023-04-30T04:27:28;4.15;;;0.40;;
75160;SDS011;67232;50.096;8.716;2023-04-30T04:29:56;7.10;;;0.40;;
75160;SDS011;67232;50.096;8.716;2023-04-30T04:32:21;6.82;;;0.75;;
75160;SDS011;67232;50.096;8.716;2023-04-30T04:34:49;6.97;;;0.70;;
75160;SDS011;67232;50.096;8.716;2023-04-30T04:37:18;4.53;;;0.57;;
75160;SDS011;67232;50.096;8.716;2023-04-30T04:39:44;7.10;;;0.63;;
75160;SDS011;67232;50.096;8.716;2023-04-30T04:42:10;12.25;;;1.33;;
75160;SDS011;67232;50.096;8.716;2023-04-30T04:44:38;4.90;;;0.35;;
75160;SDS011;67232;50.096;8.716;2023-04-30T04:47:05;6.60;;;0.63;;
75160;SDS011;67232;50.096;8.716;2023-04-30T04:49:30;8.27;;;0.80;;
75160;SDS011;67232;50.096;8.716;2023-04-30T04:51:56;8.40;;;0.57;;
75160;SDS011;67232;50.096;8.716;2023-04-30T04:54:22;6.43;;;0.50;;
75160;SDS011;67232;50.096;8.716;2023-04-30T04:56:47;7.35;;;0.52;;
75160;SDS011;67232;50.096;8.716;2023-04-30T04:59:13;6.30;;;0.30;;
75160;SDS011;67232;50.096;8.716;2023-04-30T05:01:41;6.95;;;0.60;;
75160;SDS011;67232;50.096;8.716;2023-04-30T05:04:09;5.43;;;0.63;;
75160;SDS011;67232;50.096;8.716;2023-04-30T05:06:34;6.88;;;0.77;;
75160;SDS011;67232;50.096;8.716;2023-04-30T05:09:00;5.88;;;0.85;;
75160;SDS011;67232;50.096;8.716;2023-04-30T05:11:26;5.78;;;0.45;;
75160;SDS011;67232;50.096;8.716;2023-04-30T05:13:52;4.88;;;0.38;;
75160;SDS011;67232;50.096;8.716;2023-04-30T05:16:20;7.57;;;1.02;;
75160;SDS011;67232;50.096;8.716;2023-04-30T05:18:45;4.13;;;0.30;;
75160;SDS011;67232;50.096;8.716;2023-04-30T05:21:13;5.00;;;0.35;;
75160;SDS011;67232;50.096;8.716;2023-04-30T05:23:39;6.05;;;0.30;;
75160;SDS011;67232;50.096;8.716;2023-04-30T05:26:05;4.60;;;0.20;;
75160;SDS011;67232;50.096;8.716;2023-04-30T05:28:32;7.15;;;0.80;;
75160;SDS011;67232;50.096;8.716;2023-04-30T05:31:00;6.70;;;0.50;;
75160;SDS011;67232;50.096;8.716;2023-04-30T05:33:26;5.15;;;0.40;;
75160;SDS011;67232;50.096;8.716;2023-04-30T05:35:52;4.25;;;0.32;;
75160;SDS011;67232;50.096;8.716;2023-04-30T05:38:17;4.93;;;0.50;;
75160;SDS011;67232;50.096;8.716;2023-04-30T05:40:43;6.18;;;0.30;;
75160;SDS011;67232;50.096;8.716;2023-04-30T05:43:08;5.68;;;0.50;;
75160;SDS011;67232;50.096;8.716;2023-04-30T05:45:36;4.32;;;0.38;;
75160;SDS011;67232;50.096;8.716;2023-04-30T05:48:02;4.45;;;0.45;;
75160;SDS011;67232;50.096;8.716;2023-04-30T05:50:30;4.57;;;0.40;;
75160;SDS011;67232;50.096;8.716;2023-04-30T05:52:56;8.82;;;0.50;;
75160;SDS011;67232;50.096;8.716;2023-04-30T05:55:21;4.38;;;0.32;;
75160;SDS011;67232;50.096;8.716;2023-04-30T05:57:49;4.60;;;0.25;;
75160;SDS011;67232;50.096;8.716;2023-04-30T06:00:15;9.98;;;0.98;;
75160;SDS011;67232;50.096;8.716;2023-04-30T06:02:43;5.50;;;0.40;;
75160;SDS011;67232;50.096;8.716;2023-04-30T06:05:11;4.00;;;0.43;;
75160;SDS011;67232;50.096;8.716;2023-04-30T06:07:37;6.22;;;0.43;;
75160;SDS011;67232;50.096;8.716;2023-04-30T06:10:02;4.57;;;0.28;;
75160;SDS011;67232;50.096;8.716;2023-04-30T06:12:28;4.53;;;0.20;;
75160;SDS011;67232;50.096;8.716;2023-04-30T06:17:20;6.88;;;0.40;;
75160;SDS011;67232;50.096;8.716;2023-04-30T06:19:45;4.78;;;0.30;;
75160;SDS011;67232;50.096;8.716;2023-04-30T06:22:11;5.13;;;0.30;;
75160;SDS011;67232;50.096;8.716;2023-04-30T06:24:37;4.03;;;0.15;;
75160;SDS011;67232;50.096;8.716;2023-04-30T06:27:02;4.85;;;0.20;;
75160;SDS011;67232;50.096;8.716;2023-04-30T06:29:28;6.00;;;0.52;;
75160;SDS011;67232;50.096;8.716;2023-04-30T06:31:53;7.28;;;0.60;;
75160;SDS011;67232;50.096;8.716;2023-04-30T06:34:19;4.97;;;0.30;;
75160;SDS011;67232;50.096;8.716;2023-04-30T06:36:45;6.43;;;0.10;;
75160;SDS011;67232;50.096;8.716;2023-04-30T06:39:15;4.93;;;0.75;;
75160;SDS011;67232;50.096;8.716;2023-04-30T06:41:43;6.68;;;0.43;;
75160;SDS011;67232;50.096;8.716;2023-04-30T06:44:12;4.88;;;0.35;;
75160;SDS011;67232;50.096;8.716;2023-04-30T06:46:39;4.85;;;0.15;;
75160;SDS011;67232;50.096;8.716;2023-04-30T06:49:04;5.97;;;0.57;;
75160;SDS011;67232;50.096;8.716;2023-04-30T06:51:30;4.32;;;0.40;;
75160;SDS011;67232;50.096;8.716;2023-04-30T06:53:56;11.68;;;2.42;;
75160;SDS011;67232;50.096;8.716;2023-04-30T06:56:21;4.05;;;0.47;;
75160;SDS011;67232;50.096;8.716;2023-04-30T06:58:47;5.45;;;0.20;;
75160;SDS011;67232;50.096;8.716;2023-04-30T07:01:14;3.85;;;0.17;;
75160;SDS011;67232;50.096;8.716;2023-04-30T07:03:39;3.75;;;0.10;;
75160;SDS011;67232;50.096;8.716;2023-04-30T07:06:05;5.53;;;0.13;;
75160;SDS011;67232;50.096;8.716;2023-04-30T07:08:30;3.58;;;0.32;;
75160;SDS011;67232;50.096;8.716;2023-04-30T07:10:58;3.85;;;0.00;;
75160;SDS011;67232;50.096;8.716;2023-04-30T07:13:24;4.78;;;0.00;;
75160;SDS011;67232;50.096;8.716;2023-04-30T07:18:15;3.90;;;0.00;;
75160;SDS011;67232;50.096;8.716;2023-04-30T07:20:41;5.20;;;0.03;;
75160;SDS011;67232;50.096;8.716;2023-04-30T07:23:06;2.80;;;0.10;;
75160;SDS011;67232;50.096;8.716;2023-04-30T07:25:33;3.13;;;0.00;;
75160;SDS011;67232;50.096;8.716;2023-04-30T07:28:01;3.95;;;0.10;;
75160;SDS011;67232;50.096;8.716;2023-04-30T07:30:29;3.35;;;0.00;;
75160;SDS011;67232;50.096;8.716;2023-04-30T07:32:58;3.05;;;0.00;;
75160;SDS011;67232;50.096;8.716;2023-04-30T07:37:49;1.77;;;0.00;;
75160;SDS011;67232;50.096;8.716;2023-04-30T07:40:17;2.67;;;0.00;;
75160;SDS011;67232;50.096;8.716;2023-04-30T07:45:09;3.17;;;0.00;;
75160;SDS011;67232;50.096;8.716;2023-04-30T07:47:35;3.25;;;0.00;;
75160;SDS011;67232;50.096;8.716;2023-04-30T07:52:26;3.40;;;0.00;;
75160;SDS011;67232;50.096;8.716;2023-04-30T07:54:52;2.15;;;0.00;;
75160;SDS011;67232;50.096;8.716;2023-04-30T07:59:43;5.05;;;0.05;;
75160;SDS011;67232;50.096;8.716;2023-04-30T08:02:08;3.97;;;0.00;;
75160;SDS011;67232;50.096;8.716;2023-04-30T08:04:36;4.35;;;0.20;;
75160;SDS011;67232;50.096;8.716;2023-04-30T08:07:02;2.17;;;0.00;;
75160;SDS011;67232;50.096;8.716;2023-04-30T08:09:30;4.10;;;0.00;;
75160;SDS011;67232;50.096;8.716;2023-04-30T08:14:23;4.10;;;0.00;;
75160;SDS011;67232;50.096;8.716;2023-04-30T08:19:14;3.30;;;0.00;;
75160;SDS011;67232;50.096;8.716;2023-04-30T08:21:40;3.70;;;0.00;;
75160;SDS011;67232;50.096;8.716;2023-04-30T08:26:31;2.63;;;0.00;;
75160;SDS011;67232;50.096;8.716;2023-04-30T08:31:22;2.85;;;0.00;;
75160;SDS011;67232;50.096;8.716;2023-04-30T08:36:13;2.83;;;0.00;;
75160;SDS011;67232;50.096;8.716;2023-04-30T08:41:08;1.17;;;0.00;;
75160;SDS011;67232;50.096;8.716;2023-04-30T08:43:36;3.75;;;0.00;;
75160;SDS011;67232;50.096;8.716;2023-04-30T08:46:02;3.40;;;0.00;;
75160;SDS011;67232;50.096;8.716;2023-04-30T08:48:29;2.03;;;0.00;;
75160;SDS011;67232;50.096;8.716;2023-04-30T08:50:57;2.42;;;0.00;;
75160;SDS011;67232;50.096;8.716;2023-04-30T08:53:28;1.77;;;0.00;;
75160;SDS011;67232;50.096;8.716;2023-04-30T08:55:55;1.70;;;0.10;;
75160;SDS011;67232;50.096;8.716;2023-04-30T08:58:21;1.73;;;0.00;;
75160;SDS011;67232;50.096;8.716;2023-04-30T09:00:47;2.03;;;0.00;;
75160;SDS011;67232;50.096;8.716;2023-04-30T09:03:12;3.10;;;0.00;;
75160;SDS011;67232;50.096;8.716;2023-04-30T09:05:40;1.90;;;0.00;;
75160;SDS011;67232;50.096;8.716;2023-04-30T09:08:09;1.00;;;0.00;;
75160;SDS011;67232;50.096;8.716;2023-04-30T09:10:42;2.25;;;0.00;;
75160;SDS011;67232;50.096;8.716;2023-04-30T09:13:08;2.70;;;0.00;;
75160;SDS011;67232;50.096;8.716;2023-04-30T09:15:34;1.63;;;0.00;;
75160;SDS011;67232;50.096;8.716;2023-04-30T09:18:08;2.88;;;0.00;;
75160;SDS011;67232;50.096;8.716;2023-04-30T09:20:59;2.22;;;0.00;;
75160;SDS011;67232;50.096;8.716;2023-04-30T09:23:30;0.80;;;0.00;;
75160;SDS011;67232;50.096;8.716;2023-04-30T09:25:56;1.02;;;0.00;;
75160;SDS011;67232;50.096;8.716;2023-04-30T09:28:24;0.70;;;0.00;;
75160;SDS011;67232;50.096;8.716;2023-04-30T09:30:51;2.58;;;0.00;;
75160;SDS011;67232;50.096;8.716;2023-04-30T09:33:17;1.00;;;0.00;;
75160;SDS011;67232;50.096;8.716;2023-04-30T09:35:43;0.70;;;0.00;;
75160;SDS011;67232;50.096;8.716;2023-04-30T09:40:59;1.15;;;0.00;;
75160;SDS011;67232;50.096;8.716;2023-04-30T09:43:29;1.75;;;0.00;;
75160;SDS011;67232;50.096;8.716;2023-04-30T09:45:56;0.63;;;0.00;;
75160;SDS011;67232;50.096;8.716;2023-04-30T09:48:24;1.58;;;0.00;;
75160;SDS011;67232;50.096;8.716;2023-04-30T09:50:53;1.25;;;0.00;;
75160;SDS011;67232;50.096;8.716;2023-04-30T09:53:21;0.70;;;0.00;;
75160;SDS011;67232;50.096;8.716;2023-04-30T09:55:48;2.25;;;0.00;;
75160;SDS011;67232;50.096;8.716;2023-04-30T09:58:17;1.77;;;0.00;;
75160;SDS011;67232;50.096;8.716;2023-04-30T10:00:46;1.88;;;0.00;;
75160;SDS011;67232;50.096;8.716;2023-04-30T10:03:14;1.15;;;0.00;;
75160;SDS011;67232;50.096;8.716;2023-04-30T10:05:43;0.68;;;0.00;;
75160;SDS011;67232;50.096;8.716;2023-04-30T10:08:33;3.05;;;0.00;;
75160;SDS011;67232;50.096;8.716;2023-04-30T10:11:07;1.05;;;0.00;;
75160;SDS011;67232;50.096;8.716;2023-04-30T10:13:36;1.65;;;0.00;;
75160;SDS011;67232;50.096;8.716;2023-04-30T10:16:07;2.03;;;0.00;;
75160;SDS011;67232;50.096;8.716;2023-04-30T10:18:51;1.25;;;0.00;;
75160;SDS011;67232;50.096;8.716;2023-04-30T10:21:19;1.58;;;0.00;;
75160;SDS011;67232;50.096;8.716;2023-04-30T10:23:51;0.68;;;0.00;;
75160;SDS011;67232;50.096;8.716;2023-04-30T10:26:18;0.63;;;0.00;;
75160;SDS011;67232;50.096;8.716;2023-04-30T10:28:44;0.47;;;0.00;;
75160;SDS011;67232;50.096;8.716;2023-04-30T10:31:14;0.75;;;0.00;;
75160;SDS011;67232;50.096;8.716;2023-04-30T10:33:58;1.60;;;0.00;;
75160;SDS011;67232;50.096;8.716;2023-04-30T10:37:00;1.08;;;0.00;;
75160;SDS011;67232;50.096;8.716;2023-04-30T10:39:32;0.60;;;0.00;;
75160;SDS011;67232;50.096;8.716;2023-04-30T10:42:02;0.38;;;0.00;;
75160;SDS011;67232;50.096;8.716;2023-04-30T10:44:33;0.73;;;0.00;;
75160;SDS011;67232;50.096;8.716;2023-04-30T10:47:06;0.20;;;0.00;;
75160;SDS011;67232;50.096;8.716;2023-04-30T10:49:34;1.42;;;0.00;;
75160;SDS011;67232;50.096;8.716;2023-04-30T10:52:03;1.58;;;0.00;;
75160;SDS011;67232;50.096;8.716;2023-04-30T10:54:32;0.10;;;0.00;;
75160;SDS011;67232;50.096;8.716;2023-04-30T10:57:09;0.85;;;0.00;;
75160;SDS011;67232;50.096;8.716;2023-04-30T10:59:42;0.15;;;0.00;;
75160;SDS011;67232;50.096;8.716;2023-04-30T11:02:15;0.10;;;0.00;;
75160;SDS011;67232;50.096;8.716;2023-04-30T11:07:32;0.05;;;0.00;;
75160;SDS011;67232;50.096;8.716;2023-04-30T11:09:58;0.60;;;0.00;;
75160;SDS011;67232;50.096;8.716;2023-04-30T11:12:25;1.08;;;0.00;;
75160;SDS011;67232;50.096;8.716;2023-04-30T11:14:59;0.10;;;0.00;;
75160;SDS011;67232;50.096;8.716;2023-04-30T11:17:49;0.10;;;0.00;;
75160;SDS011;67232;50.096;8.716;2023-04-30T11:20:19;0.08;;;0.00;;
75160;SDS011;67232;50.096;8.716;2023-04-30T11:25:42;1.75;;;0.00;;
75160;SDS011;67232;50.096;8.716;2023-04-30T11:28:19;0.45;;;0.00;;
75160;SDS011;67232;50.096;8.716;2023-04-30T11:30:51;0.17;;;0.00;;
75160;SDS011;67232;50.096;8.716;2023-04-30T11:33:19;0.20;;;0.00;;
75160;SDS011;67232;50.096;8.716;2023-04-30T11:35:48;0.40;;;0.00;;
75160;SDS011;67232;50.096;8.716;2023-04-30T11:38:20;0.70;;;0.00;;
75160;SDS011;67232;50.096;8.716;2023-04-30T11:40:50;1.25;;;0.00;;
75160;SDS011;67232;50.096;8.716;2023-04-30T11:43:24;0.13;;;0.00;;
75160;SDS011;67232;50.096;8.716;2023-04-30T11:46:08;0.55;;;0.00;;
75160;SDS011;67232;50.096;8.716;2023-04-30T11:48:36;1.50;;;0.00;;
75160;SDS011;67232;50.096;8.716;2023-04-30T11:53:48;2.97;;;0.00;;
75160;SDS011;67232;50.096;8.716;2023-04-30T11:58:46;0.52;;;0.00;;
75160;SDS011;67232;50.096;8.716;2023-04-30T12:01:12;0.00;;;0.00;;
75160;SDS011;67232;50.096;8.716;2023-04-30T12:03:48;1.27;;;0.00;;
75160;SDS011;67232;50.096;8.716;2023-04-30T12:06:21;0.10;;;0.00;;
75160;SDS011;67232;50.096;8.716;2023-04-30T12:08:48;0.05;;;0.00;;
75160;SDS011;67232;50.096;8.716;2023-04-30T12:11:21;0.08;;;0.00;;
75160;SDS011;67232;50.096;8.716;2023-04-30T12:14:02;0.05;;;0.00;;
75160;SDS011;67232;50.096;8.716;2023-04-30T12:19:09;0.00;;;0.00;;
75160;SDS011;67232;50.096;8.716;2023-04-30T12:21:38;0.10;;;0.00;;
75160;SDS011;67232;50.096;8.716;2023-04-30T12:24:05;0.25;;;0.00;;
75160;SDS011;67232;50.096;8.716;2023-04-30T12:26:35;0.10;;;0.00;;
75160;SDS011;67232;50.096;8.716;2023-04-30T12:29:03;0.20;;;0.00;;
75160;SDS011;67232;50.096;8.716;2023-04-30T12:31:36;0.20;;;0.00;;
75160;SDS011;67232;50.096;8.716;2023-04-30T12:34:07;0.63;;;0.00;;
75160;SDS011;67232;50.096;8.716;2023-04-30T12:36:34;1.10;;;0.00;;
75160;SDS011;67232;50.096;8.716;2023-04-30T12:41:45;0.05;;;0.00;;
75160;SDS011;67232;50.096;8.716;2023-04-30T12:44:15;0.00;;;0.00;;
75160;SDS011;67232;50.096;8.716;2023-04-30T12:46:41;0.50;;;0.00;;
75160;SDS011;67232;50.096;8.716;2023-04-30T12:49:07;0.40;;;0.00;;
75160;SDS011;67232;50.096;8.716;2023-04-30T12:51:36;0.43;;;0.00;;
75160;SDS011;67232;50.096;8.716;2023-04-30T12:54:05;0.00;;;0.00;;
75160;SDS011;67232;50.096;8.716;2023-04-30T12:56:30;0.30;;;0.00;;
75160;SDS011;67232;50.096;8.716;2023-04-30T12:58:59;0.25;;;0.00;;
75160;SDS011;67232;50.096;8.716;2023-04-30T13:01:24;1.25;;;0.00;;
75160;SDS011;67232;50.096;8.716;2023-04-30T13:03:50;0.10;;;0.00;;
75160;SDS011;67232;50.096;8.716;2023-04-30T13:06:17;0.00;;;0.00;;
75160;SDS011;67232;50.096;8.716;2023-04-30T13:08:43;0.22;;;0.00;;
75160;SDS011;67232;50.096;8.716;2023-04-30T13:11:11;0.20;;;0.00;;
75160;SDS011;67232;50.096;8.716;2023-04-30T13:13:39;0.32;;;0.00;;
75160;SDS011;67232;50.096;8.716;2023-04-30T13:16:06;0.57;;;0.00;;
75160;SDS011;67232;50.096;8.716;2023-04-30T13:18:32;0.10;;;0.00;;
75160;SDS011;67232;50.096;8.716;2023-04-30T13:21:00;0.65;;;0.00;;
75160;SDS011;67232;50.096;8.716;2023-04-30T13:23:28;0.10;;;0.00;;
75160;SDS011;67232;50.096;8.716;2023-04-30T13:25:56;0.20;;;0.00;;
75160;SDS011;67232;50.096;8.716;2023-04-30T13:28:21;0.20;;;0.00;;
75160;SDS011;67232;50.096;8.716;2023-04-30T13:30:47;0.85;;;0.00;;
75160;SDS011;67232;50.096;8.716;2023-04-30T13:33:15;0.45;;;0.00;;
75160;SDS011;67232;50.096;8.716;2023-04-30T13:35:40;0.00;;;0.00;;
75160;SDS011;67232;50.096;8.716;2023-04-30T13:38:10;0.15;;;0.00;;
75160;SDS011;67232;50.096;8.716;2023-04-30T13:40:36;0.00;;;0.00;;
75160;SDS011;67232;50.096;8.716;2023-04-30T13:43:01;0.05;;;0.00;;
75160;SDS011;67232;50.096;8.716;2023-04-30T13:45:27;0.03;;;0.00;;
75160;SDS011;67232;50.096;8.716;2023-04-30T13:47:53;0.65;;;0.00;;
75160;SDS011;67232;50.096;8.716;2023-04-30T13:50:19;0.15;;;0.00;;
75160;SDS011;67232;50.096;8.716;2023-04-30T13:52:47;0.10;;;0.00;;
75160;SDS011;67232;50.096;8.716;2023-04-30T13:55:12;0.05;;;0.00;;
75160;SDS011;67232;50.096;8.716;2023-04-30T13:57:38;1.05;;;0.00;;
75160;SDS011;67232;50.096;8.716;2023-04-30T14:00:04;0.90;;;0.00;;
75160;SDS011;67232;50.096;8.716;2023-04-30T14:02:31;1.13;;;0.00;;
75160;SDS011;67232;50.096;8.716;2023-04-30T14:04:58;0.10;;;0.00;;
75160;SDS011;67232;50.096;8.716;2023-04-30T14:07:29;1.13;;;0.00;;
75160;SDS011;67232;50.096;8.716;2023-04-30T14:09:55;0.55;;;0.00;;
75160;SDS011;67232;50.096;8.716;2023-04-30T14:12:21;0.63;;;0.00;;
75160;SDS011;67232;50.096;8.716;2023-04-30T14:14:48;1.15;;;0.00;;
75160;SDS011;67232;50.096;8.716;2023-04-30T14:17:14;0.25;;;0.00;;
75160;SDS011;67232;50.096;8.716;2023-04-30T14:19:39;0.10;;;0.00;;
75160;SDS011;67232;50.096;8.716;2023-04-30T14:22:05;0.32;;;0.00;;
75160;SDS011;67232;50.096;8.716;2023-04-30T14:24:31;0.00;;;0.00;;
75160;SDS011;67232;50.096;8.716;2023-04-30T14:26:56;0.75;;;0.00;;
75160;SDS011;67232;50.096;8.716;2023-04-30T14:29:25;0.30;;;0.00;;
75160;SDS011;67232;50.096;8.716;2023-04-30T14:31:51;0.00;;;0.00;;
75160;SDS011;67232;50.096;8.716;2023-04-30T14:34:16;0.00;;;0.00;;
75160;SDS011;67232;50.096;8.716;2023-04-30T14:36:43;0.22;;;0.00;;
75160;SDS011;67232;50.096;8.716;2023-04-30T14:39:09;0.20;;;0.00;;
75160;SDS011;67232;50.096;8.716;2023-04-30T14:41:37;1.17;;;0.00;;
75160;SDS011;67232;50.096;8.716;2023-04-30T14:44:05;0.40;;;0.00;;
75160;SDS011;67232;50.096;8.716;2023-04-30T14:46:30;0.63;;;0.00;;
75160;SDS011;67232;50.096;8.716;2023-04-30T14:48:57;0.35;;;0.00;;
75160;SDS011;67232;50.096;8.716;2023-04-30T14:51:23;0.32;;;0.00;;
75160;SDS011;67232;50.096;8.716;2023-04-30T14:53:52;0.10;;;0.00;;
75160;SDS011;67232;50.096;8.716;2023-04-30T14:56:19;0.03;;;0.00;;
75160;SDS011;67232;50.096;8.716;2023-04-30T14:58:44;0.52;;;0.00;;
75160;SDS011;67232;50.096;8.716;2023-04-30T15:01:10;0.95;;;0.00;;
75160;SDS011;67232;50.096;8.716;2023-04-30T15:03:38;0.40;;;0.00;;
75160;SDS011;67232;50.096;8.716;2023-04-30T15:06:06;0.57;;;0.00;;
75160;SDS011;67232;50.096;8.716;2023-04-30T15:08:32;0.20;;;0.00;;
75160;SDS011;67232;50.096;8.716;2023-04-30T15:11:00;0.17;;;0.00;;
75160;SDS011;67232;50.096;8.716;2023-04-30T15:13:30;0.38;;;0.00;;
75160;SDS011;67232;50.096;8.716;2023-04-30T15:15:58;0.10;;;0.00;;
75160;SDS011;67232;50.096;8.716;2023-04-30T15:18:26;1.73;;;0.00;;
75160;SDS011;67232;50.096;8.716;2023-04-30T15:20:52;0.57;;;0.00;;
75160;SDS011;67232;50.096;8.716;2023-04-30T15:23:20;0.52;;;0.00;;
75160;SDS011;67232;50.096;8.716;2023-04-30T15:25:48;1.00;;;0.00;;
75160;SDS011;67232;50.096;8.716;2023-04-30T15:28:17;0.65;;;0.00;;
75160;SDS011;67232;50.096;8.716;2023-04-30T15:30:43;1.00;;;0.00;;
75160;SDS011;67232;50.096;8.716;2023-04-30T15:33:11;1.20;;;0.00;;
75160;SDS011;67232;50.096;8.716;2023-04-30T15:35:37;0.10;;;0.00;;
75160;SDS011;67232;50.096;8.716;2023-04-30T15:38:03;0.10;;;0.00;;
75160;SDS011;67232;50.096;8.716;2023-04-30T15:40:29;0.10;;;0.00;;
75160;SDS011;67232;50.096;8.716;2023-04-30T15:42:57;0.45;;;0.00;;
75160;SDS011;67232;50.096;8.716;2023-04-30T15:45:25;0.32;;;0.00;;
75160;SDS011;67232;50.096;8.716;2023-04-30T15:47:54;0.38;;;0.00;;
75160;SDS011;67232;50.096;8.716;2023-04-30T15:50:19;0.10;;;0.00;;
75160;SDS011;67232;50.096;8.716;2023-04-30T15:52:45;0.00;;;0.00;;
75160;SDS011;67232;50.096;8.716;2023-04-30T15:55:11;0.10;;;0.00;;
75160;SDS011;67232;50.096;8.716;2023-04-30T15:57:37;0.15;;;0.00;;
75160;SDS011;67232;50.096;8.716;2023-04-30T16:00:03;0.57;;;0.00;;
75160;SDS011;67232;50.096;8.716;2023-04-30T16:02:29;0.10;;;0.00;;